createdAt,value
2022-08-17T00:00:42.664Z,25.19
2022-08-17T00:03:42.888Z,25.30
2022-08-17T00:06:44.682Z,25.25
2022-08-17T00:09:47.597Z,25.41
2022-08-17T00:12:49.444Z,25.35
2022-08-17T00:15:52.703Z,25.23
2022-08-17T00:19:06.712Z,25.20
2022-08-17T00:22:31.864Z,25.35
2022-08-17T00:25:31.504Z,25.30
2022-08-17T00:28:33.364Z,25.26
2022-08-17T00:31:36.234Z,25.24
2022-08-17T00:34:38.341Z,25.15
2022-08-17T00:37:40.349Z,25.38
2022-08-17T00:40:48.213Z,25.47
2022-08-17T00:43:51.078Z,25.47
2022-08-17T00:46:52.567Z,25.59
2022-08-17T00:49:54.103Z,25.46
2022-08-17T00:52:57.672Z,25.80
2022-08-17T00:56:01.588Z,25.87
2022-08-17T00:59:05.380Z,25.64
2022-08-17T01:02:09.832Z,25.73
2022-08-17T01:05:21.299Z,25.68
2022-08-17T01:08:25.992Z,25.61
2022-08-17T01:11:30.374Z,25.53
2022-08-17T01:14:32.218Z,25.54
2022-08-17T01:17:34.265Z,25.42
2022-08-17T01:20:48.436Z,23.86
2022-08-17T01:23:50.549Z,23.09
2022-08-17T01:26:52.038Z,22.71
2022-08-17T01:29:58.652Z,22.51
2022-08-17T01:33:00.143Z,22.53
2022-08-17T01:36:03.562Z,22.40
2022-08-17T01:39:09.361Z,22.28
2022-08-17T01:42:25.976Z,21.72
2022-08-17T01:45:32.018Z,21.59
2022-08-17T01:48:36.012Z,21.54
2022-08-17T01:51:37.665Z,21.27
2022-08-17T01:54:44.081Z,21.15
2022-08-17T01:57:45.612Z,20.99
2022-08-17T02:01:00.975Z,21.07
2022-08-17T02:04:05.607Z,20.89
2022-08-17T02:07:07.158Z,21.07
2022-08-17T02:10:18.966Z,20.87
2022-08-17T02:13:21.975Z,20.89
2022-08-17T02:16:23.446Z,20.77
2022-08-17T02:19:24.980Z,20.57
2022-08-17T02:22:27.436Z,20.51
2022-08-17T02:25:31.857Z,20.74
2022-08-17T02:28:33.442Z,20.54
2022-08-17T02:31:35.484Z,20.42
2022-08-17T02:34:37.510Z,20.38
2022-08-17T02:37:39.847Z,20.36
2022-08-17T02:40:41.392Z,20.48
2022-08-17T02:43:42.824Z,20.48
2022-08-17T02:46:44.270Z,20.39
2022-08-17T02:49:55.505Z,20.45
2022-08-17T02:53:02.345Z,20.55
2022-08-17T02:56:04.563Z,20.60
2022-08-17T02:59:06.008Z,20.58
2022-08-17T03:02:10.432Z,20.60
2022-08-17T03:05:14.081Z,20.59
2022-08-17T03:08:16.107Z,20.66
2022-08-17T03:11:17.641Z,20.50
2022-08-17T03:14:19.101Z,20.23
2022-08-17T03:17:27.410Z,20.26
2022-08-17T03:20:31.110Z,20.13
2022-08-17T03:23:33.598Z,20.24
2022-08-17T03:26:35.381Z,20.29
2022-08-17T03:29:36.804Z,20.27
2022-08-17T03:32:40.565Z,20.23
2022-08-17T03:35:42.050Z,20.10
2022-08-17T03:38:43.501Z,20.07
2022-08-17T03:41:46.581Z,20.04
2022-08-17T03:44:52.902Z,20.01
2022-08-17T03:48:17.671Z,19.69
2022-08-17T03:51:42.024Z,19.71
2022-08-17T03:55:03.597Z,19.68
2022-08-17T03:58:05.042Z,19.48
2022-08-17T04:01:07.165Z,19.64
2022-08-17T04:04:08.886Z,19.76
2022-08-17T04:07:10.641Z,19.80
2022-08-17T04:10:12.118Z,19.92
2022-08-17T04:13:13.959Z,19.72
2022-08-17T04:16:18.634Z,19.72
2022-08-17T04:19:20.040Z,19.72
2022-08-17T04:22:32.681Z,19.68
2022-08-17T04:25:37.435Z,19.86
2022-08-17T04:28:38.883Z,19.72
2022-08-17T04:31:40.317Z,19.64
2022-08-17T04:34:41.848Z,19.69
2022-08-17T04:37:43.281Z,19.70
2022-08-17T04:41:03.578Z,19.82
2022-08-17T04:44:05.195Z,19.92
2022-08-17T04:47:07.157Z,20.14
2022-08-17T04:50:12.124Z,19.90
2022-08-17T04:53:14.096Z,19.64
2022-08-17T04:56:18.127Z,19.69
2022-08-17T04:59:22.029Z,19.81
2022-08-17T05:02:23.606Z,19.62
2022-08-17T05:05:32.075Z,19.69
2022-08-17T05:08:33.923Z,19.85
2022-08-17T05:11:36.249Z,19.79
2022-08-17T05:14:39.433Z,19.95
2022-08-17T05:17:40.881Z,20.14
2022-08-17T05:20:42.735Z,20.11
2022-08-17T05:23:45.485Z,20.27
2022-08-17T05:26:54.107Z,20.35
2022-08-17T05:29:57.110Z,20.39
2022-08-17T05:33:21.503Z,20.50
2022-08-17T05:36:43.124Z,20.57
2022-08-17T05:39:44.571Z,20.55
2022-08-17T05:42:46.852Z,20.68
2022-08-17T05:46:15.760Z,20.74
2022-08-17T05:49:18.903Z,20.85
2022-08-17T05:52:23.890Z,20.95
2022-08-17T05:55:34.182Z,20.89
2022-08-17T05:58:48.222Z,20.83
2022-08-17T06:01:55.544Z,20.91
2022-08-17T06:05:26.383Z,20.91
2022-08-17T06:09:00.673Z,21.07
2022-08-17T06:12:34.175Z,21.21
2022-08-17T06:15:52.753Z,21.23
2022-08-17T06:19:11.526Z,21.25
2022-08-17T06:22:15.458Z,21.25
2022-08-17T06:25:32.064Z,21.23
2022-08-17T06:28:47.167Z,21.30
2022-08-17T06:31:48.873Z,21.37
2022-08-17T06:34:52.159Z,21.44
2022-08-17T06:38:05.723Z,21.70
2022-08-17T06:41:36.507Z,21.92
2022-08-17T06:44:56.258Z,22.15
2022-08-17T06:48:25.443Z,22.32
2022-08-17T06:51:36.121Z,22.47
2022-08-17T06:55:03.369Z,22.64
2022-08-17T06:58:16.394Z,22.81
2022-08-17T07:01:23.123Z,23.00
2022-08-17T07:04:31.180Z,22.93
2022-08-17T07:07:56.639Z,23.00
2022-08-17T07:11:04.893Z,23.25
2022-08-17T07:14:39.389Z,23.30
2022-08-17T07:17:47.491Z,23.38
2022-08-17T07:20:55.921Z,23.22
2022-08-17T07:24:08.496Z,23.15
2022-08-17T07:27:23.574Z,23.10
2022-08-17T07:30:29.433Z,23.02
2022-08-17T07:33:34.934Z,22.99
2022-08-17T07:36:36.552Z,22.94
2022-08-17T07:39:59.650Z,22.93
2022-08-17T07:43:13.048Z,22.92
2022-08-17T07:46:50.175Z,22.80
2022-08-17T07:49:51.747Z,22.66
2022-08-17T07:52:53.416Z,22.73
2022-08-17T07:55:55.016Z,22.76
2022-08-17T07:59:08.543Z,22.86
2022-08-17T08:02:40.153Z,22.85
2022-08-17T08:06:00.233Z,22.93
2022-08-17T08:09:01.823Z,22.92
2022-08-17T08:12:22.142Z,23.02
2022-08-17T08:15:35.001Z,23.17
2022-08-17T08:18:55.741Z,23.34
2022-08-17T08:22:06.111Z,23.38
2022-08-17T08:25:24.281Z,23.54
2022-08-17T08:28:47.011Z,23.56
2022-08-17T08:32:20.433Z,23.50
2022-08-17T08:35:42.310Z,23.55
2022-08-17T08:38:53.739Z,23.55
2022-08-17T08:42:07.625Z,23.44
2022-08-17T08:45:20.250Z,23.49
2022-08-17T08:48:56.396Z,23.56
2022-08-17T08:52:00.280Z,23.45
2022-08-17T08:55:28.781Z,23.46
2022-08-17T08:59:05.671Z,23.55
2022-08-17T09:02:28.879Z,23.49
2022-08-17T09:06:03.598Z,23.55
2022-08-17T09:09:24.339Z,23.99
2022-08-17T09:12:34.825Z,24.15
2022-08-17T09:15:44.661Z,24.20
2022-08-17T09:18:59.793Z,24.42
2022-08-17T09:22:17.535Z,24.66
2022-08-17T09:25:23.338Z,24.85
2022-08-17T09:28:39.625Z,24.97
2022-08-17T09:31:53.350Z,25.10
2022-08-17T09:35:01.443Z,24.96
2022-08-17T09:38:19.291Z,25.11
2022-08-17T09:41:48.732Z,25.16
2022-08-17T09:45:35.290Z,25.27
2022-08-17T09:48:46.976Z,25.48
2022-08-17T09:51:54.691Z,25.47
2022-08-17T09:54:58.949Z,25.31
2022-08-17T09:58:18.760Z,25.11
2022-08-17T10:01:39.785Z,24.67
2022-08-17T10:04:54.269Z,24.77
2022-08-17T10:07:56.083Z,24.83
2022-08-17T10:11:51.616Z,24.77
2022-08-17T10:15:07.772Z,24.82
2022-08-17T10:18:40.453Z,24.82
2022-08-17T10:22:32.730Z,24.87
2022-08-17T10:26:00.783Z,24.62
2022-08-17T10:29:15.633Z,24.53
2022-08-17T10:32:41.410Z,24.43
2022-08-17T10:36:02.063Z,24.29
2022-08-17T10:39:17.235Z,24.23
2022-08-17T10:42:32.505Z,23.99
2022-08-17T10:45:47.043Z,24.01
2022-08-17T10:49:23.550Z,24.12
2022-08-17T10:52:28.075Z,24.13
2022-08-17T10:55:30.297Z,24.00
2022-08-17T10:58:45.632Z,23.86
2022-08-17T11:01:47.088Z,23.87
2022-08-17T11:05:00.484Z,23.92
2022-08-17T11:08:22.939Z,23.76
2022-08-17T11:11:56.544Z,23.76
2022-08-17T11:15:19.644Z,23.77
2022-08-17T11:18:33.871Z,24.19
2022-08-17T11:22:12.885Z,24.34
2022-08-17T11:25:20.426Z,24.24
2022-08-17T11:28:28.850Z,24.26
2022-08-17T11:31:38.280Z,24.50
2022-08-17T11:34:44.512Z,24.51
2022-08-17T11:38:17.045Z,24.83
2022-08-17T11:41:29.070Z,25.01
2022-08-17T11:44:39.520Z,25.12
2022-08-17T11:48:27.385Z,25.70
2022-08-17T11:52:04.944Z,26.37
2022-08-17T11:55:33.989Z,26.64
2022-08-17T11:58:37.623Z,26.57
2022-08-17T12:01:58.025Z,26.47
2022-08-17T12:05:14.655Z,26.27
2022-08-17T12:08:21.478Z,26.13
2022-08-17T12:12:11.677Z,26.11
2022-08-17T12:15:10.528Z,26.13
2022-08-17T12:18:19.823Z,26.28
2022-08-17T12:21:53.785Z,26.04
2022-08-17T12:25:10.803Z,26.05
2022-08-17T12:28:29.863Z,26.01
2022-08-17T12:31:36.682Z,26.06
2022-08-17T12:34:43.248Z,26.15
2022-08-17T12:37:48.736Z,26.11
2022-08-17T12:40:58.406Z,25.98
2022-08-17T12:44:05.075Z,25.84
2022-08-17T12:47:21.809Z,25.76
2022-08-17T12:50:29.703Z,25.69
2022-08-17T12:53:35.113Z,25.63
2022-08-17T12:56:36.633Z,25.64
2022-08-17T12:59:42.871Z,26.00
2022-08-17T13:02:50.865Z,25.89
2022-08-17T13:05:52.296Z,25.93
2022-08-17T13:08:53.763Z,25.97
2022-08-17T13:12:00.774Z,25.88
2022-08-17T13:15:02.456Z,26.00
2022-08-17T13:18:24.967Z,25.90
2022-08-17T13:21:30.400Z,26.23
2022-08-17T13:24:38.022Z,26.17
2022-08-17T13:27:42.521Z,26.30
2022-08-17T13:30:44.356Z,26.44
2022-08-17T13:33:45.877Z,26.83
2022-08-17T13:36:47.895Z,27.49
2022-08-17T13:40:12.338Z,27.66
2022-08-17T13:43:38.161Z,27.15
2022-08-17T13:46:39.703Z,27.38
2022-08-17T13:49:48.899Z,27.67
2022-08-17T13:52:52.195Z,27.50
2022-08-17T13:55:58.247Z,27.79
2022-08-17T13:59:53.326Z,28.20
2022-08-17T14:02:55.365Z,28.79
2022-08-17T14:06:07.514Z,28.75
2022-08-17T14:09:09.068Z,28.52
2022-08-17T14:12:15.331Z,28.50
2022-08-17T14:15:20.777Z,28.61
2022-08-17T14:18:55.243Z,28.70
2022-08-17T14:21:46.122Z,28.53
2022-08-17T14:24:47.776Z,28.40
2022-08-17T14:27:53.652Z,28.89
2022-08-17T14:30:55.514Z,28.96
2022-08-17T14:33:58.872Z,29.39
2022-08-17T14:37:00.291Z,29.09
2022-08-17T14:40:05.971Z,29.40
2022-08-17T14:43:07.443Z,29.46
2022-08-17T14:46:08.886Z,29.34
2022-08-17T14:49:12.764Z,29.43
2022-08-17T14:52:15.152Z,29.30
2022-08-17T14:55:21.075Z,29.71
2022-08-17T14:58:23.517Z,29.01
2022-08-17T15:01:26.548Z,29.11
2022-08-17T15:04:28.189Z,29.40
2022-08-17T15:07:30.822Z,29.87
2022-08-17T15:10:33.352Z,29.89
2022-08-17T15:13:35.704Z,29.92
2022-08-17T15:16:54.598Z,29.91
2022-08-17T15:19:56.052Z,30.09
2022-08-17T15:22:58.882Z,30.07
2022-08-17T15:26:00.513Z,30.17
2022-08-17T15:29:01.984Z,30.15
2022-08-17T15:32:03.843Z,29.71
2022-08-17T15:35:07.281Z,29.56
2022-08-17T15:38:12.076Z,29.45
2022-08-17T15:41:18.079Z,29.65
2022-08-17T15:44:19.557Z,29.73
2022-08-17T15:47:22.864Z,29.96
2022-08-17T15:50:26.483Z,29.75
2022-08-17T15:53:27.895Z,29.50
2022-08-17T15:56:31.258Z,29.61
2022-08-17T15:59:34.843Z,29.28
2022-08-17T16:03:45.549Z,29.29
2022-08-17T16:06:00.215Z,29.20
2022-08-17T16:09:02.262Z,29.31
2022-08-17T16:12:16.569Z,29.25
2022-08-17T16:15:18.374Z,29.01
2022-08-17T16:18:20.521Z,29.13
2022-08-17T16:21:31.140Z,29.10
2022-08-17T16:24:56.817Z,28.94
2022-08-17T16:28:00.349Z,29.13
2022-08-17T16:31:01.947Z,28.94
2022-08-17T16:34:16.912Z,28.92
2022-08-17T16:37:20.033Z,29.01
2022-08-17T16:40:23.698Z,28.92
2022-08-17T16:43:25.641Z,29.00
2022-08-17T16:46:29.212Z,28.84
2022-08-17T16:49:37.046Z,28.77
2022-08-17T16:52:40.262Z,28.68
2022-08-17T16:55:42.443Z,28.70
2022-08-17T16:58:43.989Z,28.68
2022-08-17T17:01:45.466Z,28.62
2022-08-17T17:04:56.141Z,28.50
2022-08-17T17:08:12.598Z,28.42
2022-08-17T17:11:21.600Z,28.50
2022-08-17T17:14:39.171Z,28.43
2022-08-17T17:17:42.606Z,28.28
2022-08-17T17:20:55.989Z,28.17
2022-08-17T17:24:03.008Z,28.20
2022-08-17T17:27:32.307Z,27.89
2022-08-17T17:31:02.030Z,27.61
2022-08-17T17:34:06.477Z,27.41
2022-08-17T17:37:15.477Z,27.36
2022-08-17T17:40:25.343Z,27.34
2022-08-17T17:43:38.823Z,27.18
2022-08-17T17:46:50.515Z,27.10
2022-08-17T17:49:52.203Z,27.02
2022-08-17T17:53:02.080Z,26.96
2022-08-17T17:56:18.824Z,26.95
2022-08-17T17:59:51.332Z,26.90
2022-08-17T18:03:38.192Z,26.69
2022-08-17T18:07:25.252Z,26.93
2022-08-17T18:10:33.798Z,26.91
2022-08-17T18:13:41.457Z,26.74
2022-08-17T18:16:43.779Z,26.73
2022-08-17T18:19:45.299Z,26.65
2022-08-17T18:22:46.826Z,26.64
2022-08-17T18:25:50.135Z,26.69
2022-08-17T18:28:51.798Z,26.48
2022-08-17T18:32:18.190Z,26.41
2022-08-17T18:35:19.616Z,26.20
2022-08-17T18:38:33.822Z,25.99
2022-08-17T18:41:41.738Z,25.92
2022-08-17T18:44:44.102Z,25.81
2022-08-17T18:47:54.779Z,25.74
2022-08-17T18:51:00.346Z,25.83
2022-08-17T18:54:21.764Z,25.48
2022-08-17T18:57:32.695Z,25.32
2022-08-17T19:00:36.823Z,25.31
2022-08-17T19:03:42.522Z,25.28
2022-08-17T19:06:44.027Z,25.01
2022-08-17T19:09:55.629Z,25.11
2022-08-17T19:13:00.826Z,24.93
2022-08-17T19:16:20.836Z,24.84
2022-08-17T19:19:30.444Z,24.78
2022-08-17T19:22:54.579Z,24.78
2022-08-17T19:26:01.678Z,24.74
2022-08-17T19:29:12.735Z,24.82
2022-08-17T19:32:22.031Z,24.56
2022-08-17T19:35:36.150Z,24.43
2022-08-17T19:38:56.798Z,24.51
2022-08-17T19:42:30.960Z,24.17
2022-08-17T19:45:56.136Z,24.01
2022-08-17T19:49:17.035Z,24.18
2022-08-17T19:52:24.711Z,24.01
2022-08-17T19:55:50.963Z,24.05
2022-08-17T19:59:48.188Z,23.87
2022-08-17T20:03:16.555Z,23.84
2022-08-17T20:06:21.057Z,23.65
2022-08-17T20:09:22.579Z,23.74
2022-08-17T20:12:29.071Z,23.65
2022-08-17T20:15:34.963Z,23.60
2022-08-17T20:18:47.505Z,23.70
2022-08-17T20:22:00.515Z,23.57
2022-08-17T20:25:16.779Z,23.50
2022-08-17T20:28:39.106Z,23.39
2022-08-17T20:31:55.937Z,23.06
2022-08-17T20:35:09.473Z,23.19
2022-08-17T20:38:33.163Z,23.12
2022-08-17T20:42:13.189Z,23.07
2022-08-17T20:45:20.881Z,22.97
2022-08-17T20:48:38.075Z,22.95
2022-08-17T20:52:01.202Z,22.61
2022-08-17T20:55:04.902Z,22.58
2022-08-17T20:58:15.811Z,22.77
2022-08-17T21:01:24.446Z,22.81
2022-08-17T21:04:56.490Z,22.67
2022-08-17T21:08:21.070Z,22.47
2022-08-17T21:12:00.000Z,22.45
2022-08-17T21:15:03.362Z,22.49
2022-08-17T21:18:25.901Z,22.35
2022-08-17T21:21:42.749Z,22.18
2022-08-17T21:25:02.750Z,22.30
2022-08-17T21:28:17.464Z,22.38
2022-08-17T21:31:35.168Z,22.25
2022-08-17T21:35:04.272Z,22.38
2022-08-17T21:38:14.643Z,22.19
2022-08-17T21:41:22.345Z,22.34
2022-08-17T21:44:42.160Z,22.36
2022-08-17T21:47:48.977Z,22.31
2022-08-17T21:50:57.456Z,22.00
2022-08-17T21:54:03.086Z,22.26
2022-08-17T21:57:14.662Z,22.27
2022-08-17T22:00:27.391Z,22.05
2022-08-17T22:03:31.453Z,22.05
2022-08-17T22:06:41.198Z,22.07
2022-08-17T22:09:46.183Z,21.97
2022-08-17T22:13:03.516Z,22.02
2022-08-17T22:16:28.866Z,21.90
2022-08-17T22:19:31.438Z,21.74
2022-08-17T22:22:59.743Z,21.94
2022-08-17T22:26:04.801Z,21.91
2022-08-17T22:29:06.362Z,21.81
2022-08-17T22:35:32.571Z,22.37
2022-08-17T22:38:34.292Z,22.29
2022-08-17T22:41:54.250Z,22.31
2022-08-17T22:44:55.718Z,22.14
2022-08-17T22:48:00.203Z,22.22
2022-08-17T22:51:13.411Z,22.29
2022-08-17T22:54:37.512Z,22.28
2022-08-17T22:58:04.484Z,22.38
2022-08-17T23:01:25.789Z,22.09
2022-08-17T23:04:37.793Z,21.90
2022-08-17T23:07:44.704Z,21.89
2022-08-17T23:10:47.028Z,21.98
2022-08-17T23:13:48.515Z,22.20
2022-08-17T23:19:53.034Z,21.93
2022-08-17T23:22:54.567Z,21.89
2022-08-17T23:25:56.081Z,21.92
2022-08-17T23:28:57.632Z,21.63
2022-08-17T23:32:01.294Z,21.81
2022-08-17T23:35:02.815Z,21.68
2022-08-17T23:38:07.443Z,21.91
2022-08-17T23:41:12.356Z,22.05
2022-08-17T23:44:14.738Z,22.29
2022-08-17T23:47:16.287Z,22.68
2022-08-17T23:50:18.374Z,22.88
2022-08-17T23:53:20.572Z,23.03
2022-08-17T23:56:27.961Z,23.01
2022-08-17T23:59:29.515Z,23.02
